Terminal Aerodrome Forecast
Issued by NWS Charleston, WV

Current Version | Previous Version | Graphics & Text | Print | Product List | Glossary On
Versions: 1 2 3 4 5 6 7 8 9 10 11 12 13 14 15 16 17 18 19 20 21 22 23 24
000
FTUS41 KRLX 261120
TAFHTS
TAF
KHTS 261120Z 2612/2712 16004KT P6SM -SHRA BKN090
     FM261400 16005KT 6SM SHRA OVC050
     FM261600 17006KT 4SM SHRA OVC030
     FM261900 18007KT P6SM +SHRA VCTS BKN035CB
     FM262200 19006KT P6SM SHRA VCTS BKN040CB
     FM270000 19005KT P6SM -SHRA BKN040=

USA.gov is the U.S. government's official web portal to all federal, state and local government web resources and services.